createdAt,value
2018-02-22T00:00:33.525Z,81.17
2018-02-22T00:03:01.353Z,81.62
2018-02-22T00:05:28.948Z,81.45
2018-02-22T00:07:56.586Z,81.05
2018-02-22T00:10:24.345Z,80.96
2018-02-22T00:12:52.158Z,81.14
2018-02-22T00:15:19.901Z,81.27
2018-02-22T00:17:47.606Z,81.67
2018-02-22T00:20:15.198Z,81.85
2018-02-22T00:22:42.959Z,81.37
2018-02-22T00:25:10.549Z,81.35
2018-02-22T00:27:38.151Z,81.70
2018-02-22T00:30:05.869Z,81.64
2018-02-22T00:32:33.473Z,81.82
2018-02-22T00:35:01.235Z,81.74
2018-02-22T00:37:29.114Z,81.96
2018-02-22T00:39:56.785Z,82.04
2018-02-22T00:42:24.444Z,82.14
2018-02-22T00:44:52.139Z,82.40
2018-02-22T00:47:19.756Z,82.21
2018-02-22T00:49:47.401Z,82.54
2018-02-22T00:52:15.050Z,82.70
2018-02-22T00:54:42.839Z,83.00
2018-02-22T00:57:10.675Z,82.65
2018-02-22T00:59:38.386Z,82.50
2018-02-22T01:02:05.996Z,82.63
2018-02-22T01:04:33.723Z,82.49
2018-02-22T01:07:01.413Z,82.81
2018-02-22T01:09:29.202Z,82.88
2018-02-22T01:11:56.976Z,82.84
2018-02-22T01:14:24.628Z,83.07
2018-02-22T01:16:52.330Z,83.17
2018-02-22T01:19:20.112Z,83.76
2018-02-22T01:21:47.839Z,83.70
2018-02-22T01:24:15.459Z,84.02
2018-02-22T01:26:43.093Z,84.27
2018-02-22T01:29:10.912Z,84.33
2018-02-22T01:31:38.657Z,84.78
2018-02-22T01:34:06.266Z,84.74
2018-02-22T01:36:34.142Z,84.50
2018-02-22T01:39:01.880Z,84.80
2018-02-22T01:41:29.705Z,85.16
2018-02-22T01:43:57.339Z,85.43
2018-02-22T01:46:25.018Z,85.97
2018-02-22T01:48:52.723Z,86.01
2018-02-22T01:51:20.387Z,85.59
2018-02-22T01:53:48.071Z,85.78
2018-02-22T01:56:15.679Z,86.08
2018-02-22T01:58:43.314Z,86.02
2018-02-22T02:01:11.006Z,86.41
2018-02-22T02:03:38.740Z,86.29
2018-02-22T02:06:06.556Z,86.37
2018-02-22T02:08:34.434Z,86.73
2018-02-22T02:11:02.035Z,86.87
2018-02-22T02:13:29.675Z,86.87
2018-02-22T02:15:57.362Z,86.96
2018-02-22T02:18:25.129Z,87.13
2018-02-22T02:20:52.720Z,87.47
2018-02-22T02:23:20.385Z,87.63
2018-02-22T02:25:48.117Z,87.77
2018-02-22T02:30:48.546Z,87.47
2018-02-22T02:33:16.262Z,87.46
2018-02-22T02:35:43.911Z,87.71
2018-02-22T02:38:11.570Z,88.15
2018-02-22T02:40:39.643Z,87.95
2018-02-22T02:43:07.262Z,88.26
2018-02-22T02:45:34.867Z,88.50
2018-02-22T02:48:02.551Z,88.02
2018-02-22T02:50:30.128Z,87.86
2018-02-22T02:52:57.727Z,88.10
2018-02-22T02:55:25.387Z,87.98
2018-02-22T02:57:53.168Z,88.17
2018-02-22T03:00:20.841Z,88.73
2018-02-22T03:02:48.557Z,88.52
2018-02-22T03:05:16.143Z,88.73
2018-02-22T03:07:43.865Z,88.96
2018-02-22T03:10:11.481Z,88.88
2018-02-22T03:12:39.126Z,89.10
2018-02-22T03:15:06.709Z,89.17
2018-02-22T03:17:34.293Z,89.61
2018-02-22T03:20:01.928Z,89.87
2018-02-22T03:22:29.516Z,89.64
2018-02-22T03:24:57.172Z,89.44
2018-02-22T03:27:24.789Z,89.65
2018-02-22T03:29:52.435Z,89.80
2018-02-22T03:32:20.032Z,89.52
2018-02-22T03:34:47.635Z,89.19
2018-02-22T03:37:15.345Z,89.48
2018-02-22T03:39:43.033Z,90.00
2018-02-22T03:42:10.696Z,89.72
2018-02-22T03:44:38.299Z,89.79
2018-02-22T03:47:05.953Z,89.81
2018-02-22T03:49:33.550Z,89.95
2018-02-22T03:52:01.141Z,90.14
2018-02-22T03:54:28.805Z,90.22
2018-02-22T03:56:56.647Z,90.24
2018-02-22T03:59:24.237Z,91.34
2018-02-22T04:01:51.997Z,90.69
2018-02-22T04:04:19.593Z,91.41
2018-02-22T04:06:47.245Z,91.44
2018-02-22T04:09:14.917Z,91.33
2018-02-22T04:11:42.610Z,91.32
2018-02-22T04:14:10.279Z,91.84
2018-02-22T04:16:38.053Z,91.88
2018-02-22T04:19:05.682Z,91.41
2018-02-22T04:21:33.380Z,91.42
2018-02-22T04:24:01.083Z,91.60
2018-02-22T04:26:28.866Z,91.64
2018-02-22T04:28:56.458Z,91.57
2018-02-22T04:31:24.066Z,91.99
2018-02-22T04:33:51.785Z,91.93
2018-02-22T04:36:19.456Z,92.48
2018-02-22T04:38:47.141Z,92.94
2018-02-22T04:41:14.818Z,92.43
2018-02-22T04:43:42.411Z,93.13
2018-02-22T04:46:10.166Z,92.88
2018-02-22T04:48:38.051Z,93.33
2018-02-22T04:51:05.644Z,92.73
2018-02-22T04:53:33.283Z,93.17
2018-02-22T04:56:00.898Z,93.46
2018-02-22T04:58:29.404Z,93.26
2018-02-22T05:00:57.070Z,93.13
2018-02-22T05:03:24.705Z,93.21
2018-02-22T05:05:52.394Z,93.30
2018-02-22T05:08:20.017Z,93.19
2018-02-22T05:10:47.614Z,93.45
2018-02-22T05:13:15.282Z,92.91
2018-02-22T05:15:42.990Z,93.39
2018-02-22T05:18:10.586Z,93.23
2018-02-22T05:20:38.300Z,93.43
2018-02-22T05:23:05.890Z,93.52
2018-02-22T05:25:33.477Z,93.40
2018-02-22T05:28:01.148Z,93.80
2018-02-22T05:30:28.725Z,94.24
2018-02-22T05:32:56.304Z,94.62
2018-02-22T05:35:23.953Z,94.14
2018-02-22T05:37:51.656Z,93.96
2018-02-22T05:40:19.261Z,94.11
2018-02-22T05:42:46.881Z,94.19
2018-02-22T05:45:14.501Z,94.24
2018-02-22T05:47:42.101Z,94.47
2018-02-22T05:50:09.742Z,94.71
2018-02-22T05:52:37.326Z,95.41
2018-02-22T05:55:04.975Z,95.46
2018-02-22T05:57:32.859Z,96.35
2018-02-22T06:00:00.579Z,95.56
2018-02-22T06:02:28.309Z,95.74
2018-02-22T06:04:56.064Z,95.38
2018-02-22T06:07:23.763Z,95.21
2018-02-22T06:09:51.341Z,95.04
2018-02-22T06:12:19.017Z,95.50
2018-02-22T06:14:46.689Z,95.45
2018-02-22T06:17:14.361Z,95.38
2018-02-22T06:19:42.246Z,95.34
2018-02-22T06:22:09.905Z,95.33
2018-02-22T06:24:37.598Z,95.46
2018-02-22T06:27:05.375Z,95.70
2018-02-22T06:29:33.150Z,95.88
2018-02-22T06:32:01.032Z,96.27
2018-02-22T06:34:28.810Z,96.25
2018-02-22T06:36:56.587Z,96.02
2018-02-22T06:39:24.255Z,96.23
2018-02-22T06:41:52.144Z,96.15
2018-02-22T06:44:19.818Z,96.22
2018-02-22T06:46:47.482Z,96.35
2018-02-22T06:49:15.170Z,96.32
2018-02-22T06:51:42.926Z,96.37
2018-02-22T06:54:10.723Z,96.53
2018-02-22T06:56:38.506Z,96.29
2018-02-22T06:59:06.282Z,96.33
2018-02-22T07:01:34.062Z,96.40
2018-02-22T07:04:01.713Z,96.30
2018-02-22T07:06:29.402Z,96.53
2018-02-22T07:08:57.145Z,96.34
2018-02-22T07:11:24.797Z,96.45
2018-02-22T07:13:52.496Z,96.18
2018-02-22T07:16:20.323Z,95.96
2018-02-22T07:18:48.197Z,96.05
2018-02-22T07:21:15.942Z,96.24
2018-02-22T07:23:43.542Z,96.27
2018-02-22T07:26:11.216Z,96.04
2018-02-22T07:28:39.102Z,95.54
2018-02-22T07:31:06.702Z,95.56
2018-02-22T07:33:34.456Z,95.56
2018-02-22T07:36:02.235Z,95.49
2018-02-22T07:38:30.007Z,95.32
2018-02-22T07:40:57.747Z,95.26
2018-02-22T07:43:25.350Z,95.02
2018-02-22T07:45:53.144Z,94.89
2018-02-22T07:48:20.876Z,94.87
2018-02-22T07:50:48.769Z,94.65
2018-02-22T07:53:16.575Z,94.46
2018-02-22T07:55:44.352Z,94.31
2018-02-22T07:58:12.021Z,94.11
2018-02-22T08:00:39.703Z,93.95
2018-02-22T08:03:07.478Z,93.70
2018-02-22T08:05:35.240Z,93.49
2018-02-22T08:08:02.998Z,93.51
2018-02-22T08:10:30.659Z,93.11
2018-02-22T08:12:58.240Z,92.86
2018-02-22T08:15:28.770Z,92.61
2018-02-22T08:17:56.814Z,92.18
2018-02-22T08:20:25.250Z,92.03
2018-02-22T08:22:52.982Z,91.88
2018-02-22T08:25:20.763Z,91.46
2018-02-22T08:27:48.354Z,91.05
2018-02-22T08:30:15.950Z,90.70
2018-02-22T08:32:43.603Z,90.53
2018-02-22T08:35:11.357Z,89.95
2018-02-22T08:37:39.093Z,89.84
2018-02-22T08:40:07.121Z,89.24
2018-02-22T08:42:34.999Z,89.24
2018-02-22T08:45:02.877Z,88.86
2018-02-22T08:47:30.611Z,89.22
2018-02-22T08:49:58.426Z,88.49
2018-02-22T08:52:26.218Z,88.27
2018-02-22T08:54:53.936Z,88.20
2018-02-22T08:57:21.772Z,88.41
2018-02-22T08:59:49.548Z,88.57
2018-02-22T09:02:17.136Z,88.84
2018-02-22T09:04:44.998Z,88.53
2018-02-22T09:07:12.781Z,88.39
2018-02-22T09:09:40.659Z,88.25
2018-02-22T09:12:08.396Z,87.98
2018-02-22T09:14:36.215Z,88.12
2018-02-22T09:17:04.093Z,88.24
2018-02-22T09:19:31.825Z,87.83
2018-02-22T09:21:59.516Z,87.29
2018-02-22T09:24:27.292Z,87.54
2018-02-22T09:26:55.104Z,87.62
2018-02-22T09:29:22.839Z,87.28
2018-02-22T09:31:50.560Z,87.09
2018-02-22T09:34:18.274Z,87.59
2018-02-22T09:36:45.991Z,87.05
2018-02-22T09:39:13.634Z,86.21
2018-02-22T09:41:41.261Z,86.44
2018-02-22T09:44:09.035Z,86.06
2018-02-22T09:46:36.956Z,86.36
2018-02-22T09:49:04.693Z,86.33
2018-02-22T09:51:32.795Z,86.77
2018-02-22T09:54:00.502Z,86.09
2018-02-22T09:56:28.241Z,85.83
2018-02-22T09:58:55.892Z,85.78
2018-02-22T10:01:23.650Z,84.82
2018-02-22T10:03:51.470Z,85.47
2018-02-22T10:06:19.188Z,85.67
2018-02-22T10:08:46.915Z,86.08
2018-02-22T10:11:14.586Z,86.26
2018-02-22T10:13:42.368Z,86.18
2018-02-22T10:16:10.249Z,85.21
2018-02-22T10:18:37.843Z,84.41
2018-02-22T10:21:05.678Z,82.67
2018-02-22T10:23:33.482Z,81.91
2018-02-22T10:26:01.265Z,82.09
2018-02-22T10:28:28.927Z,82.48
2018-02-22T10:30:56.713Z,82.12
2018-02-22T10:33:24.481Z,81.79
2018-02-22T10:35:52.229Z,82.17
2018-02-22T10:38:19.941Z,82.46
2018-02-22T10:40:47.723Z,81.72
2018-02-22T10:43:15.318Z,81.52
2018-02-22T10:45:43.172Z,80.14
2018-02-22T10:48:10.951Z,79.54
2018-02-22T10:50:38.781Z,79.01
2018-02-22T10:53:06.512Z,79.48
2018-02-22T10:55:34.094Z,78.05
2018-02-22T10:58:01.860Z,78.62
2018-02-22T11:00:35.268Z,78.42
2018-02-22T11:03:03.052Z,78.17
2018-02-22T11:05:30.777Z,77.29
2018-02-22T11:07:58.501Z,78.24
2018-02-22T11:10:26.381Z,77.17
2018-02-22T11:12:53.974Z,76.21
2018-02-22T11:15:22.189Z,76.29
2018-02-22T11:17:50.022Z,76.60
2018-02-22T11:20:17.800Z,74.99
2018-02-22T11:22:45.580Z,75.04
2018-02-22T11:25:13.458Z,74.74
2018-02-22T11:27:41.037Z,75.24
2018-02-22T11:30:08.806Z,74.79
2018-02-22T11:32:36.583Z,76.01
2018-02-22T11:35:04.238Z,76.63
2018-02-22T11:37:32.042Z,77.07
2018-02-22T11:39:59.822Z,76.81
2018-02-22T11:42:27.573Z,76.66
2018-02-22T11:44:55.364Z,76.89
2018-02-22T11:47:23.153Z,77.05
2018-02-22T11:49:50.929Z,76.13
2018-02-22T11:52:18.662Z,75.25
2018-02-22T11:54:46.381Z,75.79
2018-02-22T11:57:14.162Z,74.75
2018-02-22T11:59:41.986Z,74.94
2018-02-22T12:02:09.677Z,74.68
2018-02-22T12:04:37.498Z,72.86
2018-02-22T12:07:05.156Z,72.01
2018-02-22T12:09:32.727Z,71.80
2018-02-22T12:12:00.315Z,71.81
2018-02-22T12:14:27.972Z,69.88
2018-02-22T12:16:55.767Z,70.88
2018-02-22T12:19:23.543Z,69.93
2018-02-22T12:21:51.631Z,69.91
2018-02-22T12:24:19.381Z,70.65
2018-02-22T12:26:47.186Z,70.87
2018-02-22T12:29:15.070Z,70.39
2018-02-22T12:31:42.736Z,70.69
2018-02-22T12:34:10.467Z,70.21
2018-02-22T12:36:38.120Z,69.58
2018-02-22T12:39:05.758Z,69.55
2018-02-22T12:41:33.512Z,70.71
2018-02-22T12:44:01.367Z,71.43
2018-02-22T12:46:29.106Z,71.71
2018-02-22T12:48:56.881Z,70.86
2018-02-22T12:51:24.658Z,70.50
2018-02-22T12:53:52.444Z,71.31
2018-02-22T12:56:20.267Z,70.90
2018-02-22T12:58:47.841Z,70.37
2018-02-22T13:01:15.445Z,71.15
2018-02-22T13:03:43.140Z,71.45
2018-02-22T13:06:11.016Z,70.84
2018-02-22T13:08:38.742Z,70.53
2018-02-22T13:11:06.434Z,71.04
2018-02-22T13:13:34.053Z,71.23
2018-02-22T13:16:01.828Z,71.96
2018-02-22T13:18:29.600Z,71.89
2018-02-22T13:20:57.380Z,71.61
2018-02-22T13:23:25.160Z,71.62
2018-02-22T13:25:52.816Z,70.74
2018-02-22T13:28:20.612Z,71.08
2018-02-22T13:30:48.385Z,69.91
2018-02-22T13:33:28.044Z,69.41
2018-02-22T13:35:55.826Z,68.95
2018-02-22T13:38:35.261Z,69.94
2018-02-22T13:41:03.051Z,70.31
2018-02-22T13:43:30.796Z,69.16
2018-02-22T13:45:58.501Z,69.66
2018-02-22T13:51:27.026Z,70.21
2018-02-22T13:53:54.783Z,69.67
2018-02-22T13:56:34.222Z,70.12
2018-02-22T13:59:01.841Z,70.15
2018-02-22T14:01:41.501Z,70.73
2018-02-22T14:04:09.276Z,70.26
2018-02-22T14:06:36.897Z,71.36
2018-02-22T14:09:04.831Z,72.22
2018-02-22T14:11:32.606Z,72.19
2018-02-22T14:14:00.194Z,72.50
2018-02-22T14:16:28.062Z,72.29
2018-02-22T14:18:55.840Z,72.01
2018-02-22T14:21:23.428Z,72.71
2018-02-22T14:23:51.291Z,72.48
2018-02-22T14:26:18.971Z,73.12
2018-02-22T14:28:46.725Z,73.88
2018-02-22T14:31:14.512Z,74.36
2018-02-22T14:33:42.311Z,73.93
2018-02-22T14:36:10.084Z,74.20
2018-02-22T14:38:39.600Z,73.79
2018-02-22T14:41:07.276Z,73.90
2018-02-22T14:43:34.872Z,74.21
2018-02-22T14:46:02.731Z,74.52
2018-02-22T14:48:30.510Z,75.16
2018-02-22T14:50:58.098Z,74.63
2018-02-22T14:53:25.750Z,74.93
2018-02-22T14:55:53.420Z,75.12
2018-02-22T14:58:21.205Z,74.72
2018-02-22T15:00:54.362Z,75.34
2018-02-22T15:03:22.191Z,75.39
2018-02-22T15:05:50.022Z,75.39
2018-02-22T15:08:17.746Z,75.27
2018-02-22T15:10:45.421Z,75.34
2018-02-22T15:13:13.081Z,75.27
2018-02-22T15:15:40.876Z,75.12
2018-02-22T15:18:08.600Z,75.15
2018-02-22T15:20:36.236Z,75.73
2018-02-22T15:23:03.906Z,75.68
2018-02-22T15:25:31.493Z,76.03
2018-02-22T15:27:59.240Z,75.60
2018-02-22T15:30:27.031Z,75.84
2018-02-22T15:32:54.702Z,75.50
2018-02-22T15:35:22.345Z,75.40
2018-02-22T15:37:49.933Z,76.01
2018-02-22T15:40:17.510Z,75.85
2018-02-22T15:42:45.315Z,75.82
2018-02-22T15:45:12.896Z,76.01
2018-02-22T15:47:40.758Z,75.97
2018-02-22T15:50:08.638Z,76.33
2018-02-22T15:52:36.312Z,76.25
2018-02-22T15:55:04.190Z,76.23
2018-02-22T15:57:31.965Z,76.57
2018-02-22T15:59:59.564Z,76.53
2018-02-22T16:02:27.320Z,76.66
2018-02-22T16:04:55.096Z,76.59
2018-02-22T16:07:22.684Z,76.71
2018-02-22T16:09:50.332Z,76.82
2018-02-22T16:12:18.014Z,76.93
2018-02-22T16:14:45.797Z,76.93
2018-02-22T16:17:13.543Z,77.01
2018-02-22T16:19:41.236Z,76.86
2018-02-22T16:22:09.032Z,77.21
2018-02-22T16:24:36.700Z,77.72
2018-02-22T16:27:04.377Z,77.79
2018-02-22T16:29:32.056Z,77.89
2018-02-22T16:31:59.796Z,78.25
2018-02-22T16:34:27.499Z,78.60
2018-02-22T16:36:55.289Z,78.57
2018-02-22T16:39:23.171Z,78.81
2018-02-22T16:41:50.833Z,79.09
2018-02-22T16:44:18.622Z,79.58
2018-02-22T16:46:46.389Z,80.32
2018-02-22T16:49:14.180Z,81.35
2018-02-22T16:51:41.862Z,81.87
2018-02-22T16:54:09.517Z,82.55
2018-02-22T16:56:37.302Z,83.66
2018-02-22T16:59:04.889Z,83.92
2018-02-22T17:01:32.758Z,84.60
2018-02-22T17:04:00.349Z,85.14
2018-02-22T17:06:28.114Z,86.26
2018-02-22T17:08:55.993Z,85.80
2018-02-22T17:11:23.776Z,85.84
2018-02-22T17:13:51.383Z,86.59
2018-02-22T17:16:19.306Z,86.54
2018-02-22T17:18:47.104Z,87.00
2018-02-22T17:21:14.880Z,88.05
2018-02-22T17:23:42.471Z,87.77
2018-02-22T17:26:15.688Z,87.79
2018-02-22T17:28:48.971Z,87.27
2018-02-22T17:31:22.367Z,88.03
2018-02-22T17:33:50.157Z,88.33
2018-02-22T17:36:19.244Z,87.65
2018-02-22T17:38:49.385Z,88.50
2018-02-22T17:41:18.711Z,88.62
2018-02-22T17:43:46.593Z,88.31
2018-02-22T17:46:14.232Z,88.56
2018-02-22T17:48:42.033Z,88.48
2018-02-22T17:51:09.825Z,88.76
2018-02-22T17:53:37.600Z,89.17
2018-02-22T17:56:05.570Z,89.24
2018-02-22T17:58:33.257Z,89.02
2018-02-22T18:01:01.140Z,89.60
2018-02-22T18:03:29.017Z,89.88
2018-02-22T18:05:56.804Z,89.92
2018-02-22T18:08:24.561Z,89.83
2018-02-22T18:10:52.249Z,90.49
2018-02-22T18:13:19.911Z,90.85
2018-02-22T18:15:47.590Z,90.87
2018-02-22T18:18:15.378Z,91.07
2018-02-22T18:20:43.671Z,91.14
2018-02-22T18:23:11.550Z,91.45
2018-02-22T18:25:39.331Z,91.55
2018-02-22T18:28:07.279Z,91.67
2018-02-22T18:30:35.085Z,91.92
2018-02-22T18:33:02.867Z,92.03
2018-02-22T18:35:30.711Z,92.08
2018-02-22T18:38:00.124Z,92.14
2018-02-22T18:40:33.451Z,92.33
2018-02-22T18:43:01.142Z,92.74
2018-02-22T18:45:28.977Z,92.95
2018-02-22T18:47:56.929Z,93.42
2018-02-22T18:50:24.539Z,93.54
2018-02-22T18:52:52.241Z,93.96
2018-02-22T18:55:19.825Z,94.08
2018-02-22T18:57:47.609Z,94.04
2018-02-22T19:00:15.445Z,94.41
2018-02-22T19:02:43.274Z,94.20
2018-02-22T19:05:11.002Z,94.27
2018-02-22T19:07:38.729Z,94.29
2018-02-22T19:10:06.502Z,94.39
2018-02-22T19:12:34.106Z,94.47
2018-02-22T19:15:02.056Z,94.80
2018-02-22T19:17:29.786Z,95.42
2018-02-22T19:19:57.607Z,95.40
2018-02-22T19:22:25.489Z,95.52
2018-02-22T19:24:53.270Z,95.61
2018-02-22T19:27:21.026Z,95.59
2018-02-22T19:29:48.816Z,95.18
2018-02-22T19:32:16.605Z,95.26
2018-02-22T19:34:44.386Z,95.54
2018-02-22T19:37:11.972Z,95.47
2018-02-22T19:39:39.724Z,95.30
2018-02-22T19:42:07.473Z,95.34
2018-02-22T19:44:35.285Z,95.56
2018-02-22T19:47:03.067Z,95.68
2018-02-22T19:49:30.849Z,95.44
2018-02-22T19:51:58.516Z,95.37
2018-02-22T19:54:26.252Z,95.49
2018-02-22T19:56:54.074Z,95.67
2018-02-22T19:59:21.851Z,95.49
2018-02-22T20:01:50.757Z,95.71
2018-02-22T20:04:18.636Z,95.67
2018-02-22T20:06:46.515Z,95.93
2018-02-22T20:09:14.195Z,95.84
2018-02-22T20:11:41.954Z,95.86
2018-02-22T20:14:09.635Z,96.75
2018-02-22T20:16:37.320Z,96.90
2018-02-22T20:19:05.093Z,96.32
2018-02-22T20:21:32.749Z,96.35
2018-02-22T20:24:00.614Z,96.62
2018-02-22T20:26:28.327Z,96.86
2018-02-22T20:28:55.999Z,96.62
2018-02-22T20:31:23.671Z,96.74
2018-02-22T20:33:51.357Z,96.97
2018-02-22T20:36:19.042Z,97.17
2018-02-22T20:38:46.706Z,96.64
2018-02-22T20:41:14.486Z,96.50
2018-02-22T20:43:42.163Z,96.72
2018-02-22T20:46:09.767Z,96.73
2018-02-22T20:48:37.616Z,96.74
2018-02-22T20:51:07.343Z,96.73
2018-02-22T20:53:35.827Z,97.04
2018-02-22T20:56:03.619Z,97.33
2018-02-22T20:58:34.150Z,96.91
2018-02-22T21:01:01.996Z,96.90
2018-02-22T21:03:29.702Z,97.26
2018-02-22T21:05:57.330Z,97.64
2018-02-22T21:08:25.095Z,97.67
2018-02-22T21:10:52.844Z,98.19
2018-02-22T21:13:20.616Z,97.93
2018-02-22T21:15:48.393Z,98.31
2018-02-22T21:18:16.135Z,98.42
2018-02-22T21:20:43.946Z,98.40
2018-02-22T21:23:11.828Z,98.53
2018-02-22T21:25:39.588Z,98.55
2018-02-22T21:28:07.284Z,98.55
2018-02-22T21:30:35.060Z,99.04
2018-02-22T21:33:02.837Z,98.97
2018-02-22T21:35:30.551Z,99.16
2018-02-22T21:37:58.289Z,99.22
2018-02-22T21:40:25.949Z,99.22
2018-02-22T21:42:53.701Z,99.32
2018-02-22T21:45:21.523Z,99.74
2018-02-22T21:47:49.403Z,100.00
2018-02-22T21:50:16.997Z,100.00
2018-02-22T21:52:44.737Z,100.00
2018-02-22T21:55:12.533Z,100.00
2018-02-22T21:57:40.271Z,100.00
2018-02-22T22:00:08.164Z,100.00
2018-02-22T22:02:35.965Z,100.00
2018-02-22T22:05:03.633Z,100.00
2018-02-22T22:07:31.385Z,100.00
2018-02-22T22:09:59.201Z,100.00
2018-02-22T22:12:26.965Z,100.00
2018-02-22T22:14:54.757Z,100.00
2018-02-22T22:17:22.361Z,100.00
2018-02-22T22:19:50.017Z,100.00
2018-02-22T22:22:17.777Z,100.00
2018-02-22T22:24:46.481Z,100.00
2018-02-22T22:27:14.259Z,100.00
2018-02-22T22:29:41.839Z,100.00
2018-02-22T22:32:09.571Z,100.00
2018-02-22T22:34:37.259Z,100.00
2018-02-22T22:37:04.911Z,100.00
2018-02-22T22:39:32.525Z,100.00
2018-02-22T22:42:00.201Z,100.00
2018-02-22T22:44:28.184Z,100.00
2018-02-22T22:46:55.963Z,100.00
2018-02-22T22:49:23.553Z,100.00
2018-02-22T22:51:51.165Z,100.00
2018-02-22T22:54:18.989Z,100.00
2018-02-22T22:56:46.623Z,100.00
2018-02-22T22:59:14.208Z,100.00
2018-02-22T23:01:42.015Z,100.00
2018-02-22T23:04:09.639Z,100.00
2018-02-22T23:06:37.362Z,100.00
2018-02-22T23:09:05.244Z,100.00
2018-02-22T23:11:32.920Z,100.00
2018-02-22T23:14:00.698Z,100.00
2018-02-22T23:16:28.296Z,100.00
2018-02-22T23:18:55.954Z,100.00
2018-02-22T23:21:23.537Z,100.00
2018-02-22T23:23:51.138Z,100.00
2018-02-22T23:26:18.903Z,100.00
2018-02-22T23:28:46.545Z,100.00
2018-02-22T23:31:14.180Z,100.00
2018-02-22T23:33:41.864Z,100.00
2018-02-22T23:36:09.592Z,100.00
2018-02-22T23:38:37.217Z,100.00
2018-02-22T23:44:12.329Z,100.00
2018-02-22T23:46:40.068Z,100.00
2018-02-22T23:49:07.883Z,100.00
2018-02-22T23:51:35.625Z,100.00
2018-02-22T23:54:03.548Z,100.00
2018-02-22T23:56:31.249Z,100.00
2018-02-22T23:58:58.998Z,100.00
